Time;durP1;ratioP1;P1;durP2;ratioP2;P2;SDS_P1;SDS_P2;PMS_P1;PMS_P2;Temp;Humidity;BMP_temperature;BMP_pressure;BME280_temperature;BME280_humidity;BME280_pressure;Samples;Min_cycle;Max_cycle;Signal;HPM_P1;HPM_P2
2021/11/13 00:00:22;;;;;;;;;;;;;;;-1.15;99.86;101571.28;5115242;28;20481;-68
2021/11/13 00:02:50;;;;;;;7.93;3.45;;;;;;;-1.08;100.00;101577.28;5114996;28;19924;-68
2021/11/13 00:05:17;;;;;;;;;;;;;;;-1.20;100.00;101588.28;5115306;28;20055;-68
2021/11/13 00:07:44;;;;;;;6.03;2.83;;;;;;;-1.08;100.00;101592.59;5114904;28;19927;-68
2021/11/13 00:10:16;;;;;;;5.32;3.20;;;;;;;-1.07;100.00;101588.38;5114535;28;20055;-68
2021/11/13 00:12:44;;;;;;;6.68;3.00;;;;;;;-0.99;99.84;101591.81;5115121;28;20054;-68
2021/11/13 00:15:12;;;;;;;7.80;3.40;;;;;;;-0.98;100.00;101596.91;5114491;28;20058;-68
2021/11/13 00:17:39;;;;;;;6.68;3.10;;;;;;;-0.97;100.00;101600.34;5114661;28;20531;-69
2021/11/13 00:20:07;;;;;;;6.07;3.60;;;;;;;-0.98;100.00;101604.56;5114445;28;20054;-69
2021/11/13 00:22:34;;;;;;;6.30;3.38;;;;;;;-0.94;100.00;101610.59;5114828;28;20104;-68
2021/11/13 00:25:01;;;;;;;8.02;3.50;;;;;;;-0.97;100.00;101608.00;5114511;28;20055;-68
2021/11/13 00:27:30;;;;;;;5.68;3.67;;;;;;;-0.92;99.96;101611.44;5114599;28;20043;-69
2021/11/13 00:29:57;;;;;;;11.02;3.60;;;;;;;-0.86;99.97;101603.81;5114822;28;20051;-68
2021/11/13 00:32:24;;;;;;;9.27;3.80;;;;;;;-0.69;98.77;101611.59;5114229;28;20516;-68
2021/11/13 00:34:51;;;;;;;7.60;3.72;;;;;;;-0.62;98.12;101607.34;5114676;28;20044;-68
2021/11/13 00:37:18;;;;;;;5.97;3.20;;;;;;;-0.72;98.00;101611.53;5114235;28;20040;-68
2021/11/13 00:39:45;;;;;;;7.10;3.72;;;;;;;-0.64;98.37;101601.34;5114446;28;20497;-68
2021/11/13 00:42:12;;;;;;;4.97;3.20;;;;;;;-0.68;98.57;101613.28;5114136;28;20056;-68
2021/11/13 00:44:40;;;;;;;6.32;3.47;;;;;;;-0.91;98.95;101618.25;5114222;28;20517;-68
2021/11/13 00:47:07;;;;;;;8.45;3.33;;;;;;;-0.88;99.01;101624.22;5114024;28;20047;-69
2021/11/13 00:49:34;;;;;;;6.95;3.70;;;;;;;-0.96;99.94;101623.34;5114293;28;20043;-69
2021/11/13 00:52:01;;;;;;;;;;;;;;;-1.03;100.00;101623.28;5114415;28;20059;-68
2021/11/13 00:54:30;;;;;;;5.57;3.33;;;;;;;-1.02;100.00;101622.47;5113746;28;19919;-68
2021/11/13 00:56:57;;;;;;;6.80;3.35;;;;;;;-0.90;100.00;101628.50;5114200;28;20315;-68
2021/11/13 00:59:24;;;;;;;6.65;3.33;;;;;;;-0.94;99.98;101634.44;5113622;28;20496;-68
2021/11/13 01:01:52;;;;;;;7.63;3.80;;;;;;;-1.00;100.00;101636.94;5113868;28;20052;-68
2021/11/13 01:04:19;;;;;;;5.82;3.20;;;;;;;-0.93;100.00;101640.38;5113428;28;20055;-68
2021/11/13 01:06:48;;;;;;;6.22;3.78;;;;;;;-0.92;99.74;101644.66;5113579;28;20039;-68
2021/11/13 01:09:15;;;;;;;5.82;3.20;;;;;;;-1.00;100.00;101643.72;5113495;28;20461;-68
2021/11/13 01:11:42;;;;;;;7.72;3.60;;;;;;;-0.82;99.18;101654.09;5113572;28;20493;-68
2021/11/13 01:14:09;;;;;;;6.85;3.58;;;;;;;-0.85;99.26;101656.59;5113383;28;20405;-69
2021/11/13 01:16:35;;;;;;;6.63;3.80;;;;;;;-0.89;99.68;101660.00;5113473;28;20056;-69
2021/11/13 01:19:05;;;;;;;6.72;3.67;;;;;;;-0.92;99.38;101668.50;5113540;28;20493;-68
2021/11/13 01:21:33;;;;;;;6.50;2.97;;;;;;;-1.06;99.73;101671.81;5113779;28;20047;-69
2021/11/13 01:23:59;;;;;;;;;;;;;;;-0.95;100.00;101675.28;5113713;28;20051;-69
2021/11/13 01:26:26;;;;;;;6.07;3.50;;;;;;;-0.83;99.46;101677.06;5112841;28;19919;-69
2021/11/13 01:28:53;;;;;;;7.47;3.45;;;;;;;-0.85;99.13;101678.75;5113629;28;20051;-69
2021/11/13 01:31:20;;;;;;;5.97;3.47;;;;;;;-0.86;98.98;101674.50;5113102;28;20051;-68
2021/11/13 01:33:47;;;;;;;5.88;3.60;;;;;;;-0.81;99.20;101677.94;5113131;28;20051;-69
2021/11/13 01:36:15;;;;;;;7.85;3.70;;;;;;;-0.98;99.61;101677.81;5112933;28;20048;-69
2021/11/13 01:38:43;;;;;;;6.38;3.80;;;;;;;-1.13;100.00;101676.88;5113544;28;20047;-68
2021/11/13 01:41:10;;;;;;;;;;;;;;;-1.08;100.00;101676.88;5113666;28;20044;-69
2021/11/13 01:43:39;;;;;;;7.82;3.42;;;;;;;-1.12;100.00;101681.13;5113514;28;19920;-69
2021/11/13 01:46:09;;;;;;;6.60;3.40;;;;;;;-1.12;100.00;101680.28;5112577;28;20040;-69
2021/11/13 01:48:37;;;;;;;7.13;3.83;;;;;;;-1.11;100.00;101679.41;5112983;28;20043;-68
2021/11/13 01:51:14;;;;;;;7.03;3.45;;;;;;;-1.15;100.00;101688.78;5112586;28;20489;-69
2021/11/13 01:53:44;;;;;;;6.72;3.92;;;;;;;-1.18;100.00;101691.31;5113247;28;20101;-69
2021/11/13 01:56:16;;;;;;;6.05;3.25;;;;;;;-1.07;100.00;101696.50;5112803;28;20416;-68
2021/11/13 01:58:43;;;;;;;7.22;3.63;;;;;;;-1.00;100.00;101699.94;5112877;28;20051;-68
2021/11/13 02:01:10;;;;;;;6.88;3.70;;;;;;;-0.94;99.55;101697.44;5112400;28;20055;-68
2021/11/13 02:03:37;;;;;;;8.15;3.63;;;;;;;-1.02;99.49;101701.66;5112756;28;20058;-68
2021/11/13 02:06:04;;;;;;;7.95;3.78;;;;;;;-1.04;99.97;101700.78;5112350;28;20481;-68
2021/11/13 02:08:31;;;;;;;10.18;4.18;;;;;;;-1.06;100.00;101712.66;5112631;28;20047;-68
2021/11/13 02:10:59;;;;;;;7.47;3.63;;;;;;;-1.07;99.73;101716.06;5112686;28;20524;-68
2021/11/13 02:13:26;;;;;;;8.55;3.50;;;;;;;-1.23;100.00;101704.84;5112531;28;20055;-68
2021/11/13 02:15:53;;;;;;;7.65;3.40;;;;;;;-1.22;100.00;101709.13;5112886;28;20052;-68
2021/11/13 02:18:20;;;;;;;7.22;3.63;;;;;;;-1.23;100.00;101704.84;5112580;28;20077;-68
2021/11/13 02:20:48;;;;;;;6.10;3.45;;;;;;;-1.24;100.00;101711.66;5112378;28;20050;-69
2021/11/13 02:23:17;;;;;;;4.97;3.20;;;;;;;-1.08;100.00;101714.34;5112511;28;20051;-68
2021/11/13 02:25:45;;;;;;;6.07;3.40;;;;;;;-1.17;100.00;101716.00;5112168;28;20055;-68
2021/11/13 02:28:16;;;;;;;6.05;3.38;;;;;;;-1.20;100.00;101718.53;5112192;28;20417;-68
2021/11/13 02:30:44;;;;;;;6.55;3.70;;;;;;;-1.40;100.00;101714.94;5112386;28;20044;-69
2021/11/13 02:33:12;;;;;;;6.90;3.10;;;;;;;-1.45;100.00;101719.13;5112065;28;20043;-68
2021/11/13 02:35:40;;;;;;;8.32;3.65;;;;;;;-1.25;100.00;101721.88;5112733;28;20051;-68
2021/11/13 02:38:13;;;;;;;6.60;3.63;;;;;;;-1.15;100.00;101724.53;5112316;28;20047;-69
2021/11/13 02:40:41;;;;;;;7.45;3.97;;;;;;;-1.14;100.00;101720.25;5112338;28;20062;-68
2021/11/13 02:43:09;;;;;;;6.88;3.92;;;;;;;-1.18;100.00;101723.63;5112355;28;20409;-68
2021/11/13 02:45:36;;;;;;;6.63;3.50;;;;;;;-1.24;100.00;101724.44;5112270;28;20383;-69
2021/11/13 02:48:03;;;;;;;;;;;;;;;-1.27;100.00;101726.13;5116246;28;20482;-69
2021/11/13 02:50:31;;;;;;;6.65;3.13;;;;;;;-1.30;100.00;101734.59;5116354;28;19919;-69
2021/11/13 02:52:59;;;;;;;;;;;;;;;-1.28;100.00;101747.38;5116817;28;20051;-69
2021/11/13 02:55:28;;;;;;;5.38;3.13;;;;;;;-1.20;100.00;101746.63;5115987;28;19926;-69
2021/11/13 02:57:55;;;;;;;6.10;3.42;;;;;;;-1.16;100.00;101748.34;5116230;28;20040;-68
2021/11/13 03:00:25;;;;;;;7.88;3.40;;;;;;;-1.18;100.00;101762.81;5115991;28;20051;-68
2021/11/13 03:02:53;;;;;;;6.00;3.83;;;;;;;-1.05;100.00;101761.22;5116096;28;20409;-68
2021/11/13 03:05:23;;;;;;;;;;;;;;;-0.98;100.00;101760.41;5116326;28;20508;-69
2021/11/13 03:07:51;;;;;;;7.72;3.63;;;;;;;-1.08;100.00;101761.19;5116730;28;19946;-68
2021/11/13 03:10:18;;;;;;;7.82;3.85;;;;;;;-1.19;100.00;101762.78;5116012;28;20056;-69
2021/11/13 03:12:47;;;;;;;6.70;3.42;;;;;;;-1.27;100.00;101761.84;5115955;28;20055;-69
2021/11/13 03:15:17;;;;;;;7.07;3.42;;;;;;;-1.27;100.00;101760.16;5115444;28;20053;-68
2021/11/13 03:17:45;;;;;;;8.38;3.47;;;;;;;-1.33;100.00;101762.66;5116162;28;20044;-69
2021/11/13 03:20:15;;;;;;;6.10;3.60;;;;;;;-1.17;100.00;101761.09;5115870;28;20052;-69
2021/11/13 03:22:43;;;;;;;7.15;3.80;;;;;;;-0.99;99.67;101756.16;5115781;28;20051;-68
2021/11/13 03:25:12;;;;;;;5.43;3.25;;;;;;;-0.77;98.58;101769.09;5115239;28;20494;-68
2021/11/13 03:27:42;;;;;;;6.38;3.53;;;;;;;-1.12;98.83;101769.66;5115503;28;20413;-68
2021/11/13 03:30:11;;;;;;;6.85;3.85;;;;;;;-1.25;100.00;101768.69;5115634;28;20425;-69
2021/11/13 03:32:38;;;;;;;7.60;4.00;;;;;;;-1.38;100.00;101761.75;5116020;28;20044;-69
2021/11/13 03:35:07;;;;;;;6.93;3.47;;;;;;;-1.38;100.00;101762.59;5115308;28;20044;-68
2021/11/13 03:37:34;;;;;;;7.43;3.70;;;;;;;-1.38;100.00;101767.72;5115602;27;20044;-68
2021/11/13 03:40:01;;;;;;;6.95;3.35;;;;;;;-1.42;100.00;101772.75;5115515;28;20058;-68
2021/11/13 03:42:31;;;;;;;6.57;4.07;;;;;;;-1.41;100.00;101780.44;5115406;28;20507;-69
2021/11/13 03:44:59;;;;;;;8.65;3.70;;;;;;;-1.35;100.00;101777.09;5115427;28;20092;-68
2021/11/13 03:47:27;;;;;;;7.43;3.67;;;;;;;-1.23;100.00;101784.00;5115457;28;20052;-68
2021/11/13 03:49:54;;;;;;;6.80;3.58;;;;;;;-1.30;100.00;101789.91;5115471;28;20048;-69
2021/11/13 03:52:22;;;;;;;8.48;3.85;;;;;;;-1.17;100.00;101792.59;5115286;28;20044;-68
2021/11/13 03:54:49;;;;;;;5.57;3.25;;;;;;;-0.92;99.94;101796.25;5115581;28;20044;-68
2021/11/13 03:57:16;;;;;;;6.70;3.97;;;;;;;-0.71;98.13;101790.47;5114994;27;20054;-69
2021/11/13 03:59:43;;;;;;;5.90;3.30;;;;;;;-0.72;98.12;101803.22;5115173;28;20050;-69
2021/11/13 04:02:11;;;;;;;7.55;3.78;;;;;;;-0.90;98.08;101791.13;5115017;28;20052;-68
2021/11/13 04:04:40;;;;;;;9.82;4.32;;;;;;;-1.26;100.00;101801.88;5115342;28;20051;-68
2021/11/13 04:07:07;;;;;;;8.02;4.05;;;;;;;-1.18;100.00;101797.69;5114540;28;20055;-68
2021/11/13 04:09:34;;;;;;;8.32;3.90;;;;;;;-0.93;99.43;101794.53;5114900;28;20485;-69
2021/11/13 04:12:05;;;;;;;;;;;;;;;-0.85;99.07;101809.94;5115461;28;20047;-68
2021/11/13 04:14:32;;;;;;;6.80;3.65;;;;;;;-1.04;99.18;101808.91;5114790;28;19976;-70
2021/11/13 04:16:59;;;;;;;7.22;3.65;;;;;;;-1.24;100.00;101807.84;5114618;28;20413;-69
2021/11/13 04:19:26;;;;;;;8.85;3.95;;;;;;;-1.14;100.00;101814.75;5114753;28;20047;-69
2021/11/13 04:21:54;;;;;;;6.93;3.42;;;;;;;-0.99;100.00;101820.03;5115010;28;20043;-69
2021/11/13 04:24:22;;;;;;;6.10;3.58;;;;;;;-1.25;100.00;101817.22;5114207;28;20556;-69
2021/11/13 04:26:49;;;;;;;6.68;3.63;;;;;;;-1.36;100.00;101813.69;5114341;28;20066;-69
2021/11/13 04:29:17;;;;;;;6.13;3.47;;;;;;;-1.39;100.00;101806.88;5114514;28;20413;-69
2021/11/13 04:31:44;;;;;;;7.03;4.07;;;;;;;-1.22;100.00;101814.69;5114785;28;20044;-68
2021/11/13 04:34:18;;;;;;;8.27;3.95;;;;;;;-1.08;100.00;101811.41;5114531;28;20057;-69
2021/11/13 04:36:46;;;;;;;8.65;3.63;;;;;;;-1.31;100.00;101817.16;5114265;28;20558;-69
2021/11/13 04:39:15;;;;;;;6.97;3.70;;;;;;;-1.35;100.00;101817.94;5114299;28;20055;-68
2021/11/13 04:41:42;;;;;;;7.05;4.00;;;;;;;-1.44;100.00;101823.81;5114463;28;20054;-69
2021/11/13 04:44:09;;;;;;;;;;;;;;;-1.42;100.00;101831.47;5114395;28;20138;-68
2021/11/13 04:46:36;;;;;;;8.25;3.95;;;;;;;-1.25;100.00;101824.03;5114286;28;19920;-69
2021/11/13 04:49:03;;;;;;;11.05;3.83;;;;;;;-1.37;100.00;101823.03;5114066;28;20051;-68
2021/11/13 04:51:29;;;;;;;;;;;;;;;-1.43;100.00;101834.88;5114838;28;20044;-68
2021/11/13 04:53:56;;;;;;;7.45;3.72;;;;;;;-1.37;100.00;101837.50;5114319;28;19920;-69
2021/11/13 04:56:25;;;;;;;7.05;3.55;;;;;;;-1.33;100.00;101850.31;5113551;28;20051;-69
2021/11/13 04:58:52;;;;;;;7.28;3.83;;;;;;;-1.33;100.00;101841.81;5114143;28;20053;-70
2021/11/13 05:01:18;;;;;;;6.47;3.78;;;;;;;-1.25;100.00;101845.31;5113960;28;20043;-69
2021/11/13 05:03:45;;;;;;;12.60;4.65;;;;;;;-1.23;100.00;101858.06;5113945;28;20051;-68
2021/11/13 05:06:12;;;;;;;8.32;4.35;;;;;;;-1.26;100.00;101846.13;5113703;27;20489;-68
2021/11/13 05:08:39;;;;;;;8.57;4.30;;;;;;;-1.36;100.00;101849.44;5113179;28;20058;-69
2021/11/13 05:11:06;;;;;;;9.18;4.50;;;;;;;-1.33;100.00;101855.44;5113573;28;20055;-69
2021/11/13 05:13:34;;;;;;;6.28;3.45;;;;;;;-1.15;100.00;101843.72;5113908;28;20052;-68
2021/11/13 05:16:01;;;;;;;9.15;4.30;;;;;;;-1.26;100.00;101848.69;5113498;28;20446;-69
2021/11/13 05:18:28;;;;;;;6.65;4.07;;;;;;;-1.16;100.00;101842.84;5113336;28;20489;-69
2021/11/13 05:20:55;;;;;;;6.05;3.63;;;;;;;-0.95;100.00;101849.88;5113769;28;20280;-69
2021/11/13 05:23:22;;;;;;;7.18;3.88;;;;;;;-1.16;100.00;101862.41;5113208;28;20056;-69
2021/11/13 05:25:49;;;;;;;9.05;4.10;;;;;;;-1.38;100.00;101862.19;5113178;27;20048;-68
2021/11/13 05:28:16;;;;;;;7.22;3.80;;;;;;;-1.45;100.00;101860.38;5113551;28;20048;-68
2021/11/13 05:30:44;;;;;;;8.93;4.35;;;;;;;-1.50;100.00;101873.94;5113333;28;20409;-68
2021/11/13 05:33:11;;;;;;;7.30;4.07;;;;;;;-1.56;100.00;101865.34;5113395;27;20063;-68
2021/11/13 05:35:38;;;;;;;10.15;4.32;;;;;;;-1.29;100.00;101870.78;5113439;28;20054;-69
2021/11/13 05:38:05;;;;;;;9.93;4.25;;;;;;;-1.12;100.00;101870.13;5112982;28;20054;-68
2021/11/13 05:40:32;;;;;;;8.13;3.92;;;;;;;-1.20;100.00;101874.31;5113585;28;20419;-69
2021/11/13 05:42:59;;;;;;;;;;;;;;;-1.04;100.00;101884.69;5113743;28;20405;-69
2021/11/13 05:45:26;;;;;;;7.30;3.92;;;;;;;-1.33;100.00;101882.66;5112804;28;19920;-69
2021/11/13 05:47:54;;;;;;;8.20;4.28;;;;;;;-1.42;100.00;101885.09;5113018;28;20054;-69
2021/11/13 05:50:22;;;;;;;9.85;4.50;;;;;;;-1.49;100.00;101888.41;5112727;28;20086;-69
2021/11/13 05:52:49;;;;;;;;;;;;;;;-1.39;100.00;101892.78;5113457;28;20047;-68
2021/11/13 05:55:17;;;;;;;7.45;4.00;;;;;;;-1.33;100.00;101900.53;5112889;28;19926;-69
2021/11/13 05:57:44;;;;;;;7.57;3.88;;;;;;;-1.43;100.00;101894.47;5113128;28;20040;-69
2021/11/13 06:00:13;;;;;;;;;;;;;;;-1.41;100.00;101897.03;5113293;28;20074;-69
2021/11/13 06:02:41;;;;;;;8.18;3.97;;;;;;;-1.24;100.00;101902.34;5113059;28;19926;-69
2021/11/13 06:05:09;;;;;;;8.57;3.85;;;;;;;-1.42;100.00;101898.72;5112776;28;20058;-69
2021/11/13 06:07:37;;;;;;;9.18;4.45;;;;;;;-1.44;100.00;101900.41;5112628;28;20043;-70
2021/11/13 06:10:06;;;;;;;9.48;4.50;;;;;;;-1.34;100.00;101906.47;5112451;28;20493;-70
2021/11/13 06:12:33;;;;;;;8.52;4.30;;;;;;;-1.18;100.00;101910.06;5112830;28;20067;-69
2021/11/13 06:15:00;;;;;;;9.05;4.38;;;;;;;-0.90;100.00;101904.44;5112615;28;20062;-69
2021/11/13 06:17:27;;;;;;;8.73;4.30;;;;;;;-0.97;98.70;101901.81;5112354;28;20174;-69
2021/11/13 06:19:54;;;;;;;7.22;3.70;;;;;;;-1.22;99.94;101910.88;5112324;28;20051;-69
2021/11/13 06:22:23;;;;;;;9.43;4.80;;;;;;;-1.30;100.00;101913.34;5112608;28;20047;-68
2021/11/13 06:24:50;;;;;;;10.45;4.57;;;;;;;-1.47;100.00;101914.81;5112271;28;20413;-68
2021/11/13 06:27:17;;;;;;;9.35;4.75;;;;;;;-1.55;100.00;101917.25;5112310;28;20050;-68
2021/11/13 06:29:45;;;;;;;9.57;4.15;;;;;;;-1.65;100.00;101920.53;5112349;28;20508;-69
2021/11/13 06:32:12;;;;;;;8.68;4.40;;;;;;;-1.70;100.00;101930.66;5112181;28;20531;-70
2021/11/13 06:34:40;;;;;;;12.20;4.90;;;;;;;-1.72;100.00;101929.81;5112747;28;20519;-70
2021/11/13 06:37:07;;;;;;;8.05;4.38;;;;;;;-1.62;100.00;101931.66;5112318;28;20047;-69
2021/11/13 06:39:36;;;;;;;10.65;4.60;;;;;;;-1.60;100.00;101935.06;5112695;28;20047;-69
2021/11/13 06:42:04;;;;;;;9.93;4.13;;;;;;;-1.37;100.00;101940.47;5112619;28;20048;-68
2021/11/13 06:44:32;;;;;;;10.35;4.35;;;;;;;-1.27;100.00;101948.28;5112668;28;20398;-69
2021/11/13 06:46:58;;;;;;;9.32;4.38;;;;;;;-1.42;100.00;101951.47;5112315;28;20096;-69
2021/11/13 06:49:25;;;;;;;8.95;4.18;;;;;;;-1.28;100.00;101952.53;5112294;28;20047;-68
2021/11/13 06:51:52;;;;;;;9.43;4.40;;;;;;;-1.51;100.00;101954.75;5112342;28;20058;-70
2021/11/13 06:54:19;;;;;;;10.75;4.22;;;;;;;-1.53;100.00;101953.88;5112175;28;20044;-69
2021/11/13 06:56:49;;;;;;;10.55;4.93;;;;;;;-1.24;100.00;101956.81;5112185;28;20489;-69
2021/11/13 06:59:16;;;;;;;12.32;5.55;;;;;;;-1.15;100.00;101964.59;5111850;28;20044;-69
2021/11/13 07:01:42;;;;;;;10.13;4.80;;;;;;;-0.88;99.96;101963.22;5112465;28;20055;-68
2021/11/13 07:04:09;;;;;;;8.63;4.20;;;;;;;-0.75;98.95;101956.53;5112198;28;20044;-68
2021/11/13 07:06:36;;;;;;;7.32;4.22;;;;;;;-0.81;98.64;101962.44;5112555;28;20051;-69
2021/11/13 07:09:03;;;;;;;8.27;4.28;;;;;;;-0.81;99.20;101974.38;5111897;28;20048;-69
2021/11/13 07:11:31;;;;;;;8.85;4.18;;;;;;;-0.87;98.96;101972.63;5112478;28;20050;-70
2021/11/13 07:13:59;;;;;;;8.05;4.07;;;;;;;-1.08;99.14;101977.44;5112050;28;20493;-69
2021/11/13 07:16:26;;;;;;;7.57;4.07;;;;;;;-0.86;99.61;101978.56;5111880;28;20044;-69
2021/11/13 07:18:53;;;;;;;8.45;4.57;;;;;;;-0.95;99.08;101981.84;5112298;28;20126;-69
2021/11/13 07:21:19;;;;;;;8.60;3.92;;;;;;;-0.83;99.36;101986.28;5111980;28;20048;-69
2021/11/13 07:23:46;;;;;;;13.20;5.53;;;;;;;-0.82;99.31;101993.09;5112014;28;20054;-69
2021/11/13 07:26:14;;;;;;;7.90;4.18;;;;;;;-0.89;99.90;101984.50;5111492;28;20058;-69
2021/11/13 07:28:42;;;;;;;9.43;4.65;;;;;;;-0.94;99.81;101994.66;5112054;28;20054;-69
2021/11/13 07:31:14;;;;;;;8.00;4.20;;;;;;;-1.10;100.00;102001.28;5111965;28;20104;-68
2021/11/13 07:33:42;;;;;;;8.77;4.43;;;;;;;-1.22;100.00;102000.25;5114868;28;20489;-68
2021/11/13 07:36:08;;;;;;;;;;;;;;;-1.30;100.00;102002.72;5115751;28;20054;-68
2021/11/13 07:38:36;;;;;;;6.88;3.83;;;;;;;-1.34;100.00;102006.94;5115436;28;20300;-69
2021/11/13 07:41:02;;;;;;;;;;;;;;;-1.39;100.00;102005.13;5116120;28;20043;-69
2021/11/13 07:43:29;;;;;;;9.65;4.47;;;;;;;-1.40;100.00;102013.63;5115726;28;19920;-69
2021/11/13 07:45:56;;;;;;;10.32;4.72;;;;;;;-1.42;100.00;102003.38;5115596;28;20040;-68
2021/11/13 07:48:24;;;;;;;10.30;4.45;;;;;;;-1.40;100.00;102005.97;5115225;28;20047;-69
2021/11/13 07:50:51;;;;;;;9.82;4.35;;;;;;;-1.38;100.00;102009.41;5115236;28;20044;-69
2021/11/13 07:53:18;;;;;;;8.48;4.15;;;;;;;-1.32;100.00;102012.88;5115329;28;20056;-69
2021/11/13 07:55:45;;;;;;;10.63;4.05;;;;;;;-1.27;100.00;102010.41;5115284;28;20055;-70
2021/11/13 07:58:16;;;;;;;10.25;5.00;;;;;;;-1.03;100.00;102014.13;5115070;28;20046;-70
2021/11/13 08:00:44;;;;;;;9.82;4.88;;;;;;;-0.97;100.00;102020.19;5115337;28;20047;-69
2021/11/13 08:03:11;;;;;;;9.98;5.15;;;;;;;-0.88;100.00;102014.31;5114746;28;20409;-69
2021/11/13 08:05:40;;;;;;;10.50;5.35;;;;;;;-0.74;100.00;102024.72;5115348;28;20043;-70
2021/11/13 08:08:07;;;;;;;10.82;5.07;;;;;;;-0.80;100.00;102022.94;5114868;28;20051;-69
2021/11/13 08:10:38;;;;;;;14.68;5.55;;;;;;;-0.92;100.00;102033.03;5115067;28;20047;-70
2021/11/13 08:13:05;;;;;;;10.48;5.55;;;;;;;-1.10;100.00;102033.63;5115036;28;20043;-70
2021/11/13 08:15:32;;;;;;;12.27;5.40;;;;;;;-1.01;100.00;102041.41;5115217;28;20051;-70
2021/11/13 08:17:59;;;;;;;11.55;5.72;;;;;;;-0.74;100.00;102040.06;5114914;28;20425;-70
2021/11/13 08:20:26;;;;;;;10.23;4.97;;;;;;;-0.59;99.54;102042.81;5114718;28;20047;-70
2021/11/13 08:22:54;;;;;;;11.27;5.75;;;;;;;-0.37;98.61;102048.16;5114830;28;20063;-70
2021/11/13 08:25:21;;;;;;;11.63;5.55;;;;;;;-0.34;97.84;102045.63;5114182;28;20379;-70
2021/11/13 08:27:48;;;;;;;7.97;4.22;;;;;;;-0.40;98.79;102048.97;5114702;28;20066;-69
2021/11/13 08:30:16;;;;;;;9.27;4.57;;;;;;;-0.46;98.68;102046.34;5114400;28;20054;-69
2021/11/13 08:32:44;;;;;;;8.73;4.72;;;;;;;-0.56;99.43;102052.22;5114746;28;20393;-69
2021/11/13 08:35:12;;;;;;;8.32;4.40;;;;;;;-0.54;99.84;102055.63;5114187;28;20051;-70
2021/11/13 08:37:39;;;;;;;8.70;4.10;;;;;;;-0.44;99.11;102052.31;5114485;28;20054;-69
2021/11/13 08:40:09;;;;;;;;;;;;;;;-0.48;99.17;102053.16;5115200;28;20044;-70
2021/11/13 08:42:36;;;;;;;8.18;4.18;;;;;;;-0.61;98.84;102053.84;5114509;28;20015;-70
2021/11/13 08:45:05;;;;;;;9.80;4.40;;;;;;;-0.53;100.00;102055.66;5114416;28;20044;-69
2021/11/13 08:47:32;;;;;;;9.65;4.90;;;;;;;-0.51;99.78;102055.69;5114321;28;20071;-70
2021/11/13 08:49:59;;;;;;;7.38;4.25;;;;;;;-0.35;99.22;102054.16;5114240;28;20281;-70
2021/11/13 08:52:26;;;;;;;8.75;4.32;;;;;;;-0.36;98.30;102058.41;5113804;28;20046;-70
2021/11/13 08:54:53;;;;;;;8.18;4.43;;;;;;;-0.30;98.47;102062.72;5113976;28;20048;-69
2021/11/13 08:57:21;;;;;;;8.98;4.05;;;;;;;-0.34;98.87;102058.41;5113893;28;20054;-69
2021/11/13 08:59:48;;;;;;;7.57;3.90;;;;;;;-0.30;99.22;102072.94;5113917;28;20408;-69
2021/11/13 09:02:18;;;;;;;7.28;4.15;;;;;;;-0.35;99.07;102065.22;5113625;28;20470;-69
2021/11/13 09:04:48;;;;;;;8.43;4.57;;;;;;;-0.37;98.58;102063.50;5113772;28;20048;-70
2021/11/13 09:07:16;;;;;;;10.43;4.50;;;;;;;-0.36;99.50;102063.53;5113808;28;20055;-69
2021/11/13 09:09:43;;;;;;;8.25;4.20;;;;;;;-0.26;98.60;102065.34;5113591;28;20054;-69
2021/11/13 09:12:20;;;;;;;6.82;4.00;;;;;;;-0.28;98.28;102074.69;5113454;28;20048;-69
2021/11/13 09:14:49;;;;;;;8.77;3.42;;;;;;;-0.47;99.05;102080.41;5113601;28;20047;-69
2021/11/13 09:17:16;;;;;;;7.03;3.53;;;;;;;-0.58;99.47;102079.44;5113716;28;20047;-69
2021/11/13 09:19:43;;;;;;;8.05;3.95;;;;;;;-0.60;100.00;102084.53;5113742;28;20044;-69
2021/11/13 09:22:10;;;;;;;7.07;3.75;;;;;;;-0.60;100.00;102084.53;5113194;28;20141;-69
2021/11/13 09:24:37;;;;;;;;;;;;;;;-0.55;100.00;102087.16;5113947;28;20071;-69
2021/11/13 09:27:04;;;;;;;6.15;3.83;;;;;;;-0.54;100.00;102091.41;5113501;28;19919;-69
2021/11/13 09:29:31;;;;;;;3.83;2.35;;;;;;;-0.59;99.84;102086.25;5113425;28;20508;-69
2021/11/13 09:31:59;;;;;;;5.47;2.70;;;;;;;-0.66;100.00;102094.69;5113559;28;20044;-69
2021/11/13 09:34:27;;;;;;;5.45;2.63;;;;;;;-0.70;100.00;102087.81;5113175;28;20051;-69
2021/11/13 09:36:54;;;;;;;9.05;3.75;;;;;;;-0.63;100.00;102096.44;5113140;28;20409;-69
2021/11/13 09:39:21;;;;;;;7.88;4.07;;;;;;;-0.59;100.00;102093.94;5113278;28;20050;-69
2021/11/13 09:41:49;;;;;;;8.65;4.05;;;;;;;-0.60;100.00;102091.34;5113129;28;20052;-69
2021/11/13 09:44:18;;;;;;;6.85;3.88;;;;;;;-0.48;100.00;102099.16;5112784;28;20052;-69
2021/11/13 09:46:46;;;;;;;6.10;3.20;;;;;;;-0.43;99.28;102100.09;5113034;27;20052;-69
2021/11/13 09:49:15;;;;;;;5.97;3.35;;;;;;;-0.39;99.68;102095.84;5112898;28;20058;-69
2021/11/13 09:51:43;;;;;;;7.97;3.63;;;;;;;-0.40;99.34;102101.81;5113219;28;20048;-69
2021/11/13 09:54:10;;;;;;;6.30;3.45;;;;;;;-0.41;98.89;102103.53;5112862;28;20047;-70
2021/11/13 09:56:37;;;;;;;5.70;3.05;;;;;;;-0.44;98.98;102098.34;5112790;28;20043;-69
2021/11/13 09:59:05;;;;;;;6.38;3.28;;;;;;;-0.41;99.21;102105.19;5112507;28;20052;-70
2021/11/13 10:01:32;;;;;;;8.80;3.63;;;;;;;-0.45;99.54;102106.88;5113096;28;20047;-69
2021/11/13 10:03:59;;;;;;;5.97;3.53;;;;;;;-0.44;99.38;102103.47;5112616;28;20052;-69
2021/11/13 10:06:28;;;;;;;;;;;;;;;-0.41;99.19;102108.63;5112887;28;20054;-70
2021/11/13 10:08:54;;;;;;;7.88;3.55;;;;;;;-0.35;99.16;102107.84;5112896;28;19953;-70
2021/11/13 10:11:24;;;;;;;6.45;3.28;;;;;;;-0.31;99.35;102109.59;5112338;28;20052;-69
2021/11/13 10:13:53;;;;;;;6.05;3.00;;;;;;;-0.31;99.02;102109.59;5112793;28;20050;-70
2021/11/13 10:16:23;;;;;;;5.53;2.58;;;;;;;-0.37;99.07;102114.63;5112227;28;20047;-70
2021/11/13 10:18:53;;;;;;;3.40;2.28;;;;;;;-0.48;99.89;102115.38;5112580;28;20047;-70
2021/11/13 10:21:22;;;;;;;5.85;2.58;;;;;;;-0.46;100.00;102115.41;5112539;28;20488;-70
2021/11/13 10:23:53;;;;;;;6.18;3.17;;;;;;;-0.46;100.00;102120.50;5112769;28;20043;-70
2021/11/13 10:26:23;;;;;;;5.57;2.90;;;;;;;-0.48;100.00;102120.47;5112172;28;20147;-70
2021/11/13 10:28:57;;;;;;;5.03;3.05;;;;;;;-0.52;100.00;102118.72;5112495;28;20139;-69
2021/11/13 10:31:27;;;;;;;5.65;3.30;;;;;;;-0.49;100.00;102129.00;5112467;28;20044;-70
2021/11/13 10:33:56;;;;;;;7.65;3.20;;;;;;;-0.50;100.00;102128.97;5112705;28;20052;-69
2021/11/13 10:36:27;;;;;;;5.47;3.08;;;;;;;-0.54;100.00;102128.09;5112346;28;20047;-70
2021/11/13 10:38:59;;;;;;;6.70;3.63;;;;;;;-0.45;100.00;102135.00;5112656;28;20044;-69
2021/11/13 10:41:27;;;;;;;3.17;2.17;;;;;;;-0.45;100.00;102135.00;5112046;28;20482;-70
2021/11/13 10:43:53;;;;;;;;;;;;;;;-0.48;100.00;102127.31;5112638;28;20050;-70
2021/11/13 10:46:23;;;;;;;7.18;2.95;;;;;;;-0.49;100.00;102131.56;5111972;28;19933;-70
2021/11/13 10:48:51;;;;;;;6.55;3.42;;;;;;;-0.46;100.00;102135.84;5112298;28;20488;-70
2021/11/13 10:51:20;;;;;;;8.35;3.40;;;;;;;-0.40;100.00;102125.69;5112219;28;20054;-70
2021/11/13 10:53:48;;;;;;;6.00;2.92;;;;;;;-0.40;100.00;102128.25;5112136;28;20043;-69
2021/11/13 10:56:19;;;;;;;6.28;3.65;;;;;;;-0.33;100.00;102126.63;5111910;28;20051;-70
2021/11/13 10:58:53;;;;;;;4.40;2.78;;;;;;;-0.30;100.00;102132.63;5112478;28;20048;-70
2021/11/13 11:01:34;;;;;;;6.97;3.70;;;;;;;-0.27;100.00;102140.34;5112553;28;20059;-70
2021/11/13 11:04:05;;;;;;;4.88;3.03;;;;;;;-0.21;100.00;102131.88;5111987;28;20052;-70
2021/11/13 11:06:37;;;;;;;5.45;2.72;;;;;;;-0.27;100.00;102137.78;5112244;28;20409;-69
2021/11/13 11:09:14;;;;;;;5.20;2.65;;;;;;;-0.23;100.00;102134.44;5115483;28;20079;-71
2021/11/13 11:11:43;;;;;;;4.88;2.97;;;;;;;-0.27;100.00;102142.03;5116095;28;20047;-69
2021/11/13 11:14:11;;;;;;;4.88;3.05;;;;;;;-0.18;100.00;102144.72;5115708;28;20086;-70
2021/11/13 11:16:41;;;;;;;5.80;2.95;;;;;;;-0.17;100.00;102148.13;5116008;28;20053;-68
2021/11/13 11:19:09;;;;;;;6.18;3.65;;;;;;;-0.17;100.00;102156.66;5115678;28;20051;-69
2021/11/13 11:21:48;;;;;;;5.57;3.20;;;;;;;-0.18;100.00;102159.19;5116157;28;20055;-70
2021/11/13 11:24:18;;;;;;;5.63;3.30;;;;;;;-0.15;100.00;102159.25;5115878;28;20047;-69
2021/11/13 11:26:52;;;;;;;6.22;3.45;;;;;;;-0.33;100.00;102157.31;5115611;28;20531;-69